Time;durP1;ratioP1;P1;durP2;ratioP2;P2;SDS_P1;SDS_P2;PMS_P1;PMS_P2;Temp;Humidity;BMP_temperature;BMP_pressure;BME280_temperature;BME280_humidity;BME280_pressure;Samples;Min_cycle;Max_cycle;Signal;HPM_P1;HPM_P2
2022/04/18 00:03:55;;;;;;;16.77;8.73;;;;;;;9.06;56.65;102121.75;5017932;28;20111;-77
2022/04/18 00:06:23;;;;;;;15.48;8.88;;;;;;;8.96;56.85;102118.69;5024543;28;20049;-76
2022/04/18 00:08:58;;;;;;;17.42;9.90;;;;;;;8.96;56.96;102116.06;5024925;28;20069;-76
2022/04/18 00:25:19;;;;;;;15.75;9.52;;;;;;;8.60;58.27;102108.50;5018600;28;20068;-72
2022/04/18 00:28:11;;;;;;;16.02;10.27;;;;;;;8.46;59.22;102107.03;5005355;28;20059;-76
2022/04/18 00:30:39;;;;;;;16.83;9.80;;;;;;;8.39;59.34;102112.84;5017868;28;20057;-76
2022/04/18 00:33:09;;;;;;;17.13;10.75;;;;;;;8.32;59.52;102105.56;5020498;28;20486;-75
2022/04/18 00:35:38;;;;;;;13.75;9.77;;;;;;;8.26;60.13;102105.31;5018970;28;20056;-74
2022/04/18 00:38:08;;;;;;;17.33;11.25;;;;;;;8.20;60.86;102108.56;5022459;28;20095;-75
2022/04/18 00:40:38;;;;;;;17.48;10.75;;;;;;;8.09;60.74;102102.84;5018115;28;20053;-75
2022/04/18 00:43:08;;;;;;;13.30;9.93;;;;;;;8.06;60.84;102105.34;5019413;28;20358;-76
2022/04/18 00:45:36;;;;;;;16.00;11.02;;;;;;;8.02;61.28;102100.81;5018382;28;20148;-76
2022/04/18 00:48:04;;;;;;;16.52;10.38;;;;;;;7.98;62.11;102104.13;5024384;28;20553;-76
2022/04/18 00:50:36;;;;;;;19.40;11.80;;;;;;;7.92;62.00;102108.16;5020089;28;20053;-75
2022/04/18 00:53:06;;;;;;;16.77;10.25;;;;;;;7.85;61.61;102094.84;5016203;28;20105;-75
2022/04/18 00:55:36;;;;;;;16.65;10.98;;;;;;;7.79;62.35;102106.72;5023020;28;20684;-75
2022/04/18 00:58:08;;;;;;;18.08;10.60;;;;;;;7.75;62.57;102099.59;5023302;28;20251;-75
2022/04/18 01:00:51;;;;;;;15.77;10.43;;;;;;;7.68;63.00;102097.53;5021019;28;20084;-71
2022/04/18 01:07:52;;;;;;;18.20;11.27;;;;;;;7.58;63.93;102091.00;5028253;28;20126;-71
2022/04/18 01:10:23;;;;;;;14.77;10.98;;;;;;;7.54;64.52;102091.69;5023509;28;20069;-75
2022/04/18 01:12:57;;;;;;;15.27;10.60;;;;;;;7.48;65.03;102089.69;5030370;28;20045;-76
2022/04/18 01:15:28;;;;;;;16.85;10.88;;;;;;;7.42;64.52;102078.97;5027162;28;20049;-76
2022/04/18 01:17:56;;;;;;;15.02;10.90;;;;;;;7.40;64.86;102074.50;5028851;28;20063;-76
2022/04/18 01:20:34;;;;;;;18.27;11.70;;;;;;;7.35;65.24;102079.50;5027700;28;20077;-76
2022/04/18 01:23:07;;;;;;;19.13;11.85;;;;;;;7.33;65.51;102083.75;5024061;28;20140;-76
2022/04/18 01:31:16;;;;;;;16.63;10.30;;;;;;;7.25;65.38;102098.19;5025974;28;20575;-75
2022/04/18 01:53:50;;;;;;;15.00;10.25;;;;;;;6.85;67.15;102078.06;5027185;28;20563;-76
2022/04/18 01:57:09;;;;;;;17.95;10.60;;;;;;;6.79;68.00;102079.47;5025040;28;20156;-71
2022/04/18 02:04:01;;;;;;;16.92;10.57;;;;;;;6.72;67.71;102070.47;5022694;28;20418;-72
2022/04/18 02:13:52;;;;;;;16.33;9.32;;;;;;;6.64;67.95;102068.31;5024193;28;20057;-77
2022/04/18 02:25:56;;;;;;;15.90;9.88;;;;;;;6.48;70.32;102069.25;5018777;28;20274;-76
2022/04/18 02:28:28;;;;;;;18.92;10.63;;;;;;;6.45;70.19;102053.47;5022472;28;20057;-75
2022/04/18 02:37:33;;;;;;;15.90;10.48;;;;;;;6.26;69.36;102075.13;5020753;28;20062;-75
2022/04/18 02:40:01;;;;;;;17.05;11.50;;;;;;;6.20;69.32;102069.63;5024980;28;20049;-75
2022/04/18 02:42:29;;;;;;;19.27;11.90;;;;;;;6.11;69.96;102067.47;5018238;28;20092;-75
2022/04/18 02:48:23;;;;;;;14.05;8.23;;;;;;;6.08;71.56;102058.59;5025343;28;20522;-76
2022/04/18 02:50:53;;;;;;;12.18;8.05;;;;;;;6.08;71.42;102062.09;5021259;28;20050;-75
2022/04/18 02:53:29;;;;;;;12.57;8.32;;;;;;;6.15;71.96;102052.88;5016161;28;20371;-75
2022/04/18 02:55:57;;;;;;;;;;;;;;;6.23;70.53;102052.44;5021771;28;20045;-75
2022/04/18 02:58:26;;;;;;;12.60;7.25;;;;;;;6.31;69.66;102054.50;5017996;28;19932;-76
2022/04/18 03:00:59;;;;;;;13.63;7.75;;;;;;;6.38;68.48;102051.38;5020146;28;20057;-76
2022/04/18 03:03:28;;;;;;;11.32;6.53;;;;;;;6.42;67.82;102053.31;5017154;28;20057;-76
2022/04/18 03:05:57;;;;;;;10.95;6.93;;;;;;;6.45;67.15;102053.47;5016895;28;20079;-75
2022/04/18 03:08:27;;;;;;;9.82;6.25;;;;;;;6.68;65.90;102052.88;5018753;28;20096;-76
2022/04/18 03:11:05;;;;;;;10.30;5.85;;;;;;;6.81;64.45;102050.03;5022360;28;20111;-75
2022/04/18 03:13:34;;;;;;;11.68;6.78;;;;;;;6.91;63.48;102047.88;5019507;28;20057;-75
2022/04/18 03:16:02;;;;;;;10.02;6.28;;;;;;;6.86;63.84;102047.66;5013494;28;20053;-76
2022/04/18 03:18:30;;;;;;;10.68;5.10;;;;;;;6.99;63.14;102043.91;5014027;28;20050;-76
2022/04/18 03:20:58;;;;;;;8.80;5.40;;;;;;;7.02;63.09;102049.28;5015176;28;20567;-76
2022/04/18 03:23:28;;;;;;;9.65;5.85;;;;;;;7.06;62.30;102035.56;5017228;28;20049;-76
2022/04/18 03:25:57;;;;;;;10.00;5.45;;;;;;;7.09;62.26;102031.38;5018231;28;20051;-76
2022/04/18 03:28:25;;;;;;;10.52;5.60;;;;;;;7.08;62.71;102029.59;5020744;28;20045;-75
2022/04/18 03:40:15;;;;;;;9.93;5.40;;;;;;;7.08;61.88;102021.75;5016436;28;20115;-71
2022/04/18 03:42:54;;;;;;;7.22;5.10;;;;;;;7.06;61.57;102014.69;4995612;28;20049;-71
2022/04/18 03:45:28;;;;;;;9.55;4.78;;;;;;;7.08;61.17;102021.75;5001090;28;20209;-72
2022/04/18 03:47:59;;;;;;;;;;;;;;;7.04;60.95;102021.56;4996677;28;20488;-75
2022/04/18 03:50:28;;;;;;;8.55;4.70;;;;;;;6.95;61.00;102010.69;5013479;28;19976;-75
2022/04/18 03:52:55;;;;;;;8.00;4.40;;;;;;;6.89;61.35;102022.63;5012898;28;20057;-76
2022/04/18 03:55:26;;;;;;;7.40;4.70;;;;;;;6.88;61.13;102014.72;5016240;28;20045;-76
2022/04/18 03:57:54;;;;;;;6.82;4.53;;;;;;;6.84;61.84;102020.63;5017222;28;20054;-76
2022/04/18 04:00:22;;;;;;;9.18;4.70;;;;;;;6.76;61.63;102020.25;5014843;28;20135;-76
2022/04/18 04:02:51;;;;;;;9.07;4.72;;;;;;;6.71;62.03;102020.84;5018471;28;20049;-75
2022/04/18 04:05:19;;;;;;;8.50;4.57;;;;;;;6.66;62.13;102019.75;5018795;28;20658;-75
2022/04/18 04:07:47;;;;;;;9.50;4.57;;;;;;;6.63;62.26;102027.41;5017409;28;20059;-75
2022/04/18 04:10:15;;;;;;;6.85;4.13;;;;;;;6.62;61.26;102026.53;5022159;28;20053;-72
2022/04/18 04:12:50;;;;;;;7.97;4.35;;;;;;;6.60;61.88;102037.69;5023326;28;20057;-72
2022/04/18 04:15:35;;;;;;;8.18;4.65;;;;;;;6.56;62.00;102036.66;5018425;28;20366;-72
2022/04/18 04:18:12;;;;;;;10.82;4.70;;;;;;;6.48;61.96;102036.28;5017329;28;20054;-71
2022/04/18 04:20:58;;;;;;;9.48;4.60;;;;;;;6.41;62.62;102042.00;5010046;28;20132;-72
2022/04/18 04:23:31;;;;;;;7.28;4.18;;;;;;;6.40;62.22;102055.84;5016165;28;20057;-72
2022/04/18 04:28:58;;;;;;;7.63;4.13;;;;;;;6.35;64.46;102046.03;5013916;28;20707;-72
2022/04/18 04:31:40;;;;;;;8.02;4.07;;;;;;;6.44;63.14;102041.25;5016422;28;20053;-72
2022/04/18 04:34:28;;;;;;;5.95;3.83;;;;;;;6.51;62.15;102041.63;5022050;28;20068;-71
2022/04/18 04:37:02;;;;;;;7.10;4.60;;;;;;;6.51;61.82;102044.25;5006013;28;20482;-71
2022/04/18 04:39:52;;;;;;;8.05;4.07;;;;;;;6.54;61.97;102040.91;5020000;28;20053;-71
2022/04/18 04:42:23;;;;;;;7.07;3.75;;;;;;;6.52;62.26;102045.13;5018332;28;20089;-71
2022/04/18 04:45:10;;;;;;;6.80;4.18;;;;;;;6.49;62.33;102037.19;5023230;28;20065;-72
2022/04/18 04:47:44;;;;;;;9.40;4.55;;;;;;;6.46;62.73;102034.41;5018361;28;20144;-71
2022/04/18 04:50:18;;;;;;;7.50;4.55;;;;;;;6.43;62.74;102039.47;5018485;28;20117;-72
2022/04/18 04:52:48;;;;;;;8.60;4.35;;;;;;;6.47;63.41;102038.81;4999548;28;20042;-72
2022/04/18 04:55:18;;;;;;;5.72;3.92;;;;;;;6.46;63.09;102037.03;5020332;28;20049;-72
2022/04/18 04:57:50;;;;;;;7.32;4.50;;;;;;;6.46;63.30;102030.09;5031698;28;20696;-72
2022/04/18 05:00:22;;;;;;;7.97;4.45;;;;;;;6.61;62.69;102013.41;5020224;28;20057;-75
2022/04/18 05:02:50;;;;;;;6.65;4.13;;;;;;;6.82;61.16;102015.31;5020733;28;20085;-75
2022/04/18 05:05:18;;;;;;;7.95;4.03;;;;;;;6.88;59.45;102020.84;5017460;28;20060;-76
2022/04/18 05:07:46;;;;;;;8.57;3.90;;;;;;;6.90;59.62;102010.47;5018446;28;20080;-75
2022/04/18 05:10:15;;;;;;;8.98;3.90;;;;;;;6.91;59.51;102013.97;5014898;28;20145;-75
2022/04/18 05:12:43;;;;;;;8.15;3.65;;;;;;;6.97;58.72;102011.66;5023151;28;20061;-75
2022/04/18 05:15:11;;;;;;;8.23;3.60;;;;;;;7.10;58.14;102009.69;5022045;28;20104;-75
2022/04/18 05:17:41;;;;;;;9.48;3.60;;;;;;;7.14;57.46;102014.22;5021218;28;20053;-75
2022/04/18 05:20:11;;;;;;;7.13;4.15;;;;;;;7.20;58.22;102009.28;5022048;28;20350;-75
2022/04/18 05:22:39;;;;;;;5.90;3.65;;;;;;;7.46;56.45;102013.03;5022532;28;20493;-75
2022/04/18 05:25:08;;;;;;;6.43;4.00;;;;;;;7.56;56.79;102014.31;5018408;28;20119;-75
2022/04/18 05:27:37;;;;;;;7.93;3.58;;;;;;;7.62;56.58;102009.38;5016365;28;20057;-75
2022/04/18 05:30:07;;;;;;;6.97;4.25;;;;;;;7.74;55.56;102025.56;5018082;28;20082;-75
2022/04/18 05:32:35;;;;;;;7.68;3.55;;;;;;;7.93;55.94;102016.81;5014985;28;20605;-74
2022/04/18 05:35:05;;;;;;;5.68;3.67;;;;;;;8.26;54.48;102016.44;5019989;28;20132;-76
2022/04/18 05:37:33;;;;;;;5.90;3.78;;;;;;;8.51;54.04;102012.28;5016757;28;20100;-74
2022/04/18 05:40:06;;;;;;;5.70;3.40;;;;;;;8.69;53.66;102009.50;5015284;28;20514;-71
2022/04/18 05:42:52;;;;;;;6.70;3.72;;;;;;;8.98;52.63;102007.13;5017656;28;20088;-72
2022/04/18 05:45:24;;;;;;;9.60;4.60;;;;;;;9.19;51.99;102005.34;5017838;28;20171;-73
2022/04/18 05:48:01;;;;;;;9.70;4.20;;;;;;;9.44;50.65;102007.97;5030394;28;20704;-76
2022/04/18 05:50:31;;;;;;;7.03;4.00;;;;;;;9.69;50.39;102001.00;5018391;28;20171;-74
2022/04/18 05:53:00;;;;;;;8.52;3.67;;;;;;;9.97;48.92;102003.75;5013406;28;21285;-76
2022/04/18 05:55:35;;;;;;;10.95;3.92;;;;;;;10.22;48.22;102004.59;5023199;28;20094;-71
2022/04/18 05:58:07;;;;;;;6.50;4.07;;;;;;;10.43;47.70;102006.16;5015652;28;20042;-71
2022/04/18 06:00:36;;;;;;;5.53;3.72;;;;;;;10.63;47.35;102017.31;5004670;28;20092;-71
2022/04/18 06:03:07;;;;;;;6.03;3.78;;;;;;;10.84;46.18;102003.97;5002408;28;20157;-73
2022/04/18 06:05:36;;;;;;;7.20;3.58;;;;;;;10.89;46.27;102005.00;5020357;28;20053;-75
2022/04/18 06:08:04;;;;;;;6.78;3.55;;;;;;;10.90;46.37;102006.78;5015774;28;20446;-75
2022/04/18 06:10:33;;;;;;;5.78;3.85;;;;;;;11.12;46.03;102003.06;5015092;28;20144;-75
2022/04/18 06:13:01;;;;;;;5.88;3.60;;;;;;;11.36;45.90;102003.78;5016917;28;20101;-76
2022/04/18 06:15:29;;;;;;;8.73;4.30;;;;;;;11.60;45.23;102014.03;5023317;28;20046;-73
2022/04/18 06:18:01;;;;;;;10.88;4.10;;;;;;;11.56;44.32;102012.19;5022134;28;20401;-72
2022/04/18 06:20:44;;;;;;;7.63;3.75;;;;;;;11.53;44.05;102008.56;5020336;28;20075;-73
2022/04/18 06:23:20;;;;;;;7.20;3.55;;;;;;;11.73;43.81;102010.03;5021721;28;20466;-73
2022/04/18 06:26:00;;;;;;;6.45;3.70;;;;;;;11.92;43.51;102009.69;5018313;28;20073;-72
2022/04/18 06:28:32;;;;;;;6.80;3.95;;;;;;;12.05;43.10;102003.91;4989793;28;20060;-72
2022/04/18 06:31:01;;;;;;;6.55;3.75;;;;;;;12.24;43.08;102001.75;5019009;28;20556;-73
2022/04/18 06:33:34;;;;;;;6.45;3.83;;;;;;;12.08;42.44;101998.72;5015161;28;20084;-73
2022/04/18 06:36:05;;;;;;;5.05;3.45;;;;;;;12.27;42.59;101999.19;5016045;28;20058;-72
2022/04/18 06:38:33;;;;;;;7.53;3.58;;;;;;;12.56;42.81;102008.66;4995372;28;20686;-73
2022/04/18 06:41:02;;;;;;;5.82;3.88;;;;;;;12.64;42.21;102009.72;5011878;28;20069;-72
2022/04/18 06:43:33;;;;;;;6.55;3.92;;;;;;;12.69;42.19;102005.44;5011784;28;20107;-72
2022/04/18 06:46:05;;;;;;;6.20;4.22;;;;;;;12.58;40.85;102006.94;5002944;28;20124;-72
2022/04/18 06:48:34;;;;;;;6.38;3.83;;;;;;;12.86;40.76;102015.47;5015337;28;20045;-73
2022/04/18 06:51:22;;;;;;;6.13;3.83;;;;;;;13.16;40.78;102010.91;4999257;28;20660;-72
2022/04/18 06:53:51;;;;;;;5.88;3.55;;;;;;;13.69;41.26;102011.09;4996916;28;20037;-72
2022/04/18 06:59:17;;;;;;;7.40;4.10;;;;;;;13.94;39.74;102017.69;5016875;28;20057;-75
2022/04/18 07:01:46;;;;;;;6.28;3.45;;;;;;;14.14;38.96;102024.22;5015043;28;20164;-73
2022/04/18 07:04:15;;;;;;;6.05;3.75;;;;;;;14.17;38.47;102018.13;5014705;28;20048;-75
2022/04/18 07:06:44;;;;;;;8.57;4.20;;;;;;;14.01;38.15;102028.41;5014030;28;20104;-77
2022/04/18 07:09:12;;;;;;;8.63;5.03;;;;;;;14.12;38.40;102020.66;5016464;28;20425;-76
2022/04/18 07:11:42;;;;;;;5.65;3.33;;;;;;;14.30;37.81;102020.09;5017034;28;20490;-76
2022/04/18 07:14:09;;;;;;;8.65;4.15;;;;;;;14.48;37.86;102019.53;5011743;28;20077;-76
2022/04/18 07:16:37;;;;;;;7.22;4.13;;;;;;;14.53;38.19;102013.47;5015607;28;20053;-76
2022/04/18 07:19:05;;;;;;;6.93;4.13;;;;;;;15.02;37.95;102011.53;5008328;28;20049;-77
2022/04/18 07:21:33;;;;;;;7.25;3.67;;;;;;;14.98;37.47;102017.63;5019399;28;20112;-76
2022/04/18 07:24:06;;;;;;;6.53;3.85;;;;;;;15.03;36.63;102015.94;5015776;28;20134;-73
2022/04/18 07:26:39;;;;;;;6.70;4.20;;;;;;;15.09;37.09;102005.47;5020676;28;20153;-73
2022/04/18 07:29:10;;;;;;;7.95;3.78;;;;;;;15.16;36.43;102012.59;5016447;28;20080;-74
2022/04/18 07:31:39;;;;;;;5.15;3.42;;;;;;;15.25;36.35;102012.72;5012561;28;20091;-74
2022/04/18 07:34:11;;;;;;;5.60;3.70;;;;;;;15.44;35.50;102023.53;5001807;28;20076;-73
2022/04/18 07:36:43;;;;;;;7.25;3.50;;;;;;;15.20;35.69;102022.34;5019278;28;20458;-73
2022/04/18 07:39:14;;;;;;;6.85;3.53;;;;;;;15.64;36.45;102024.63;5014606;28;20041;-73
2022/04/18 07:44:26;;;;;;;7.90;4.30;;;;;;;15.54;36.31;102021.00;5014434;28;20045;-72
2022/04/18 07:46:58;;;;;;;5.47;3.95;;;;;;;15.37;35.65;102027.84;5029583;28;20050;-72
2022/04/18 07:52:13;;;;;;;6.22;4.07;;;;;;;15.44;35.88;102026.16;5007990;28;20062;-74
2022/04/18 07:54:45;;;;;;;5.47;3.60;;;;;;;15.33;35.61;102020.75;5011765;28;20124;-73
2022/04/18 07:57:14;;;;;;;7.45;4.15;;;;;;;15.38;35.70;102019.94;5021441;28;20128;-74
2022/04/18 08:02:37;;;;;;;6.32;4.18;;;;;;;15.96;35.50;102010.00;5014602;28;20136;-73
2022/04/18 08:05:17;;;;;;;6.80;3.72;;;;;;;15.97;34.97;102019.72;5016600;28;20337;-77
2022/04/18 08:07:44;;;;;;;7.57;4.28;;;;;;;15.81;34.90;102009.84;5013120;28;20057;-78
2022/04/18 08:10:14;;;;;;;7.78;4.05;;;;;;;16.09;34.77;102015.41;5011000;28;20108;-81
2022/04/18 08:12:44;;;;;;;6.72;3.95;;;;;;;16.14;33.82;102014.56;5027390;28;20423;-80
2022/04/18 08:15:12;;;;;;;7.93;4.30;;;;;;;16.17;34.08;102014.59;5017513;28;20065;-81
2022/04/18 08:17:40;;;;;;;7.95;4.68;;;;;;;16.17;34.42;102024.31;5025729;28;20525;-78
2022/04/18 08:20:09;;;;;;;6.90;3.78;;;;;;;16.12;34.05;102026.03;5017306;28;20042;-79
2022/04/18 08:22:38;;;;;;;8.02;4.28;;;;;;;15.95;33.56;102023.22;5021021;28;20041;-75
2022/04/18 08:25:07;;;;;;;6.55;4.03;;;;;;;16.17;33.98;102019.00;5019933;28;20172;-75
2022/04/18 08:27:40;;;;;;;8.90;4.47;;;;;;;16.19;34.13;102019.91;5020166;28;20088;-75
2022/04/18 08:30:20;;;;;;;7.72;4.30;;;;;;;16.51;33.93;102015.78;5018486;28;20058;-74
2022/04/18 08:32:49;;;;;;;8.23;4.30;;;;;;;16.42;33.00;102010.41;5014032;28;20057;-74
2022/04/18 08:35:32;;;;;;;8.45;4.43;;;;;;;16.59;33.03;102008.78;5012386;28;20477;-74
2022/04/18 08:38:03;;;;;;;8.30;4.70;;;;;;;16.38;33.00;102013.91;5023138;28;20127;-75
2022/04/18 08:40:31;;;;;;;7.72;4.45;;;;;;;17.12;33.36;102009.97;5018777;28;20068;-74
2022/04/18 08:43:13;;;;;;;11.05;5.22;;;;;;;17.09;33.60;102007.31;5013681;28;20129;-75
2022/04/18 08:45:44;;;;;;;9.13;5.32;;;;;;;16.88;33.10;102002.78;5003434;28;20429;-75
2022/04/18 08:53:46;;;;;;;8.27;4.88;;;;;;;17.57;32.76;102007.50;5015515;28;20053;-74
2022/04/18 08:56:15;;;;;;;9.35;5.80;;;;;;;17.45;32.85;102004.81;5016934;28;20467;-76
2022/04/18 08:58:44;;;;;;;11.27;6.65;;;;;;;17.97;32.96;102005.84;5023934;28;20048;-77
2022/04/18 09:01:12;;;;;;;9.07;5.88;;;;;;;18.13;32.51;102011.16;5014686;28;20080;-77
2022/04/18 09:03:40;;;;;;;8.85;5.80;;;;;;;17.12;32.56;102005.56;5023230;28;20045;-77
2022/04/18 09:06:10;;;;;;;10.68;5.95;;;;;;;17.75;33.46;102006.69;5029280;28;20049;-79
2022/04/18 09:08:47;;;;;;;8.75;5.40;;;;;;;18.06;33.36;102004.97;5016924;28;20072;-77
2022/04/18 09:11:33;;;;;;;8.57;5.63;;;;;;;18.28;33.26;101990.81;5023043;28;20081;-77
2022/04/18 09:14:27;;;;;;;9.70;5.93;;;;;;;18.44;32.36;101997.00;5023404;28;20054;-75
2022/04/18 09:16:55;;;;;;;8.85;5.60;;;;;;;18.08;31.81;101997.00;5015181;28;20079;-74
2022/04/18 09:19:25;;;;;;;8.52;4.95;;;;;;;18.48;31.96;101992.56;5026171;28;20053;-75
2022/04/18 09:21:59;;;;;;;8.55;4.82;;;;;;;18.95;31.85;101993.38;5003938;28;20041;-76
2022/04/18 09:24:32;;;;;;;;;;;;;;;19.05;30.22;101988.91;5018794;28;20060;-78
2022/04/18 09:27:06;;;;;;;8.43;4.85;;;;;;;18.89;30.86;101995.16;5022272;28;20541;-78
2022/04/18 09:29:38;;;;;;;8.10;4.85;;;;;;;19.02;30.98;101991.56;5017728;28;20057;-80
2022/04/18 09:32:10;;;;;;;11.90;5.55;;;;;;;18.84;31.23;101987.19;5015483;28;20064;-78
2022/04/18 09:34:38;;;;;;;8.43;4.57;;;;;;;18.75;30.88;101991.66;5018474;28;20057;-79
2022/04/18 09:37:14;;;;;;;8.75;5.18;;;;;;;18.45;30.11;101987.25;5020328;28;20049;-79
2022/04/18 09:39:44;;;;;;;6.70;4.20;;;;;;;18.97;31.28;101988.03;5019255;28;20064;-79
2022/04/18 09:42:14;;;;;;;8.20;5.13;;;;;;;18.70;31.03;101990.81;5029699;28;20057;-79
2022/04/18 09:44:44;;;;;;;7.25;4.60;;;;;;;18.59;30.81;101991.66;5018654;28;20053;-78
2022/04/18 09:47:17;;;;;;;7.05;4.80;;;;;;;18.56;31.36;101990.78;5019211;28;20053;-78
2022/04/18 09:49:46;;;;;;;8.30;5.50;;;;;;;18.35;30.78;101997.00;5019209;28;20111;-77
2022/04/18 09:52:16;;;;;;;8.43;5.65;;;;;;;18.68;31.43;101992.56;5019085;28;20164;-77
2022/04/18 09:54:50;;;;;;;8.23;5.20;;;;;;;18.42;31.40;101982.84;5017255;28;20684;-77
2022/04/18 09:57:24;;;;;;;8.68;5.07;;;;;;;18.72;31.09;101983.72;5019886;28;20060;-77
2022/04/18 09:59:54;;;;;;;7.63;4.93;;;;;;;18.50;30.88;101977.50;5025225;28;20342;-77
2022/04/18 10:02:24;;;;;;;7.60;5.15;;;;;;;18.95;30.14;101973.88;5017658;28;20267;-77
2022/04/18 10:04:53;;;;;;;7.60;4.78;;;;;;;19.20;30.40;101975.56;5022083;28;20279;-77
2022/04/18 10:07:21;;;;;;;7.93;4.82;;;;;;;19.45;30.37;101971.00;5020607;28;20503;-77
2022/04/18 10:09:49;;;;;;;9.40;5.03;;;;;;;19.62;30.74;101968.28;5015112;28;20085;-78
2022/04/18 10:12:17;;;;;;;9.02;5.50;;;;;;;19.26;30.35;101970.22;5020828;28;20049;-78
2022/04/18 10:14:45;;;;;;;8.38;5.63;;;;;;;19.10;30.67;101968.50;5014728;28;20049;-77
2022/04/18 10:17:17;;;;;;;8.45;5.03;;;;;;;18.81;30.07;101965.06;5021009;28;20045;-77
2022/04/18 10:20:10;;;;;;;7.53;4.93;;;;;;;19.38;29.41;101963.94;5032024;28;20144;-77
2022/04/18 10:23:05;;;;;;;8.75;4.70;;;;;;;19.34;28.53;101966.63;5018228;28;20054;-74
2022/04/18 10:25:54;;;;;;;9.77;4.43;;;;;;;19.60;29.05;101959.41;5013524;28;20049;-76
2022/04/18 10:28:28;;;;;;;9.25;4.57;;;;;;;19.03;28.38;101969.41;5017485;28;20120;-74
2022/04/18 10:31:02;;;;;;;7.10;4.03;;;;;;;19.46;28.88;101966.56;5016723;28;20091;-73
2022/04/18 10:33:36;;;;;;;6.10;4.15;;;;;;;19.51;27.82;101972.75;5015720;28;20466;-74
2022/04/18 10:36:07;;;;;;;12.37;6.20;;;;;;;19.67;27.53;101963.81;5019017;28;20140;-74
2022/04/18 10:38:41;;;;;;;;;;;;;;;19.51;27.65;101965.69;5011509;28;20129;-74
2022/04/18 10:41:35;;;;;;;9.68;4.60;;;;;;;20.01;27.67;101966.19;4998824;28;20315;-74
2022/04/18 10:44:08;;;;;;;6.77;4.43;;;;;;;19.95;27.53;101967.13;5017425;28;20069;-73
2022/04/18 10:46:37;;;;;;;7.32;4.40;;;;;;;19.61;27.67;101970.94;5014933;28;20314;-76
2022/04/18 10:49:15;;;;;;;6.72;4.15;;;;;;;20.02;28.03;101960.88;5019816;28;20077;-76
2022/04/18 10:51:45;;;;;;;6.43;4.05;;;;;;;20.09;26.72;101954.59;5018973;28;20133;-75
2022/04/18 10:54:16;;;;;;;8.20;3.80;;;;;;;20.49;26.80;101956.94;5016150;28;20544;-74
2022/04/18 10:56:49;;;;;;;6.70;3.42;;;;;;;20.53;25.85;101950.66;5017347;28;20056;-77
2022/04/18 10:59:19;;;;;;;6.65;3.80;;;;;;;19.73;26.35;101950.47;5019278;28;20094;-76
2022/04/18 11:01:48;;;;;;;9.32;4.50;;;;;;;19.98;26.57;101947.59;5018643;28;20087;-70
2022/04/18 11:04:18;;;;;;;11.77;6.50;;;;;;;20.70;26.86;101945.16;5018984;28;20900;-73
2022/04/18 11:06:48;;;;;;;8.13;4.55;;;;;;;20.84;26.34;101951.19;5015840;28;20049;-76
2022/04/18 11:09:19;;;;;;;7.82;4.15;;;;;;;21.04;26.48;101945.63;5023377;28;20135;-74
2022/04/18 11:12:05;;;;;;;7.40;4.30;;;;;;;21.32;25.86;101943.50;5021217;28;20163;-75
2022/04/18 11:14:54;;;;;;;7.10;3.83;;;;;;;21.61;26.44;101943.09;5013406;28;20058;-73
2022/04/18 11:17:28;;;;;;;8.77;4.88;;;;;;;21.35;25.43;101948.81;5017104;28;20053;-73
2022/04/18 11:20:18;;;;;;;7.88;4.78;;;;;;;21.06;25.47;101946.47;5019814;28;20370;-71
2022/04/18 11:23:20;;;;;;;14.82;4.53;;;;;;;21.23;25.93;101940.97;5012904;28;20074;-73
2022/04/18 11:26:12;;;;;;;8.68;4.93;;;;;;;21.12;25.93;101941.06;5013799;28;20060;-71
2022/04/18 11:28:41;;;;;;;8.07;5.03;;;;;;;21.18;26.11;101935.66;5018418;28;20044;-75
2022/04/18 11:31:11;;;;;;;11.05;9.70;;;;;;;21.43;26.07;101937.13;5013103;28;20052;-77
2022/04/18 11:33:43;;;;;;;70.20;64.72;;;;;;;21.45;26.74;101934.44;5016207;28;20088;-74
2022/04/18 11:36:13;;;;;;;12.20;7.88;;;;;;;21.61;25.55;101929.75;5012083;28;20132;-77
2022/04/18 11:38:42;;;;;;;8.30;4.70;;;;;;;21.08;24.38;101934.00;5014931;28;20045;-78
2022/04/18 11:41:11;;;;;;;10.07;5.07;;;;;;;21.06;24.96;101931.38;5016870;28;20045;-76
2022/04/18 11:43:40;;;;;;;12.13;7.18;;;;;;;20.98;24.65;101927.03;5018538;28;20044;-75
2022/04/18 11:46:09;;;;;;;9.43;5.82;;;;;;;21.50;25.30;101927.25;5015457;28;20076;-76
2022/04/18 11:48:42;;;;;;;17.98;15.10;;;;;;;21.30;24.87;101930.19;5015810;28;20046;-79
2022/04/18 11:51:14;;;;;;;17.65;16.02;;;;;;;20.76;25.66;101926.44;5028667;28;20053;-78
2022/04/18 11:53:42;;;;;;;13.48;10.60;;;;;;;20.57;25.09;101931.09;5015343;28;20111;-79
2022/04/18 11:56:12;;;;;;;7.43;5.40;;;;;;;20.86;25.73;101930.72;5014069;28;20053;-73
2022/04/18 11:58:40;;;;;;;9.13;5.75;;;;;;;20.66;25.05;101924.78;5013289;28;20054;-78
2022/04/18 12:06:46;;;;;;;11.48;6.43;;;;;;;20.66;25.11;101919.44;5015957;28;20045;-80
2022/04/18 12:09:17;;;;;;;142.85;133.25;;;;;;;20.83;25.33;101918.31;5013557;28;20092;-74
2022/04/18 12:11:46;;;;;;;10.32;7.43;;;;;;;21.24;25.26;101910.72;5014345;28;20180;-73
2022/04/18 12:14:14;;;;;;;10.13;7.35;;;;;;;21.55;25.63;101912.03;5015034;28;20080;-72
2022/04/18 12:19:44;;;;;;;11.02;7.63;;;;;;;21.54;25.42;101903.16;5015300;28;20127;-73
2022/04/18 12:22:27;;;;;;;14.82;12.45;;;;;;;22.30;27.07;101895.63;5013803;28;20080;-72
2022/04/18 12:24:59;;;;;;;10.95;8.95;;;;;;;22.14;24.77;101900.38;5014716;28;20062;-76
2022/04/18 12:27:38;;;;;;;33.85;21.40;;;;;;;22.14;25.55;101894.16;5020694;28;20355;-74
2022/04/18 12:30:07;;;;;;;24.70;19.80;;;;;;;22.10;25.23;101892.44;5008302;28;20182;-78
2022/04/18 12:32:56;;;;;;;11.95;7.68;;;;;;;21.34;25.72;101905.22;5013759;28;20057;-73
2022/04/18 12:35:38;;;;;;;11.57;7.88;;;;;;;21.11;26.01;101897.50;5017403;28;20160;-76
2022/04/18 12:38:18;;;;;;;14.15;7.45;;;;;;;21.35;26.49;101893.66;5016397;28;20041;-73
2022/04/18 12:41:10;;;;;;;12.32;8.40;;;;;;;21.47;26.27;101888.13;5017293;28;20073;-74
2022/04/18 12:43:53;;;;;;;11.25;7.30;;;;;;;21.88;26.44;101887.44;5016730;28;20045;-76
2022/04/18 12:46:24;;;;;;;11.65;7.45;;;;;;;21.98;25.79;101881.94;5016330;28;20132;-76
2022/04/18 12:48:53;;;;;;;14.90;8.75;;;;;;;21.08;25.12;101881.53;5014439;28;20172;-76
2022/04/18 12:51:31;;;;;;;10.93;7.63;;;;;;;21.90;25.26;101876.72;5016346;28;20058;-76
2022/04/18 12:54:01;;;;;;;11.95;7.72;;;;;;;22.19;25.55;101876.25;5016092;28;20053;-76
2022/04/18 12:56:30;;;;;;;10.43;6.32;;;;;;;22.72;25.80;101872.53;5020715;28;20054;-76
2022/04/18 12:59:03;;;;;;;11.90;7.20;;;;;;;22.36;25.02;101871.47;5024221;28;20095;-76
2022/04/18 13:01:54;;;;;;;12.52;7.15;;;;;;;21.94;24.90;101867.75;5024754;28;20095;-73
2022/04/18 13:04:40;;;;;;;12.20;6.93;;;;;;;22.36;25.34;101867.91;5020743;28;20061;-73
2022/04/18 13:11:00;;;;;;;8.75;5.72;;;;;;;21.92;24.05;101860.69;5011515;28;20131;-73
2022/04/18 13:13:29;;;;;;;10.70;6.15;;;;;;;22.22;25.02;101845.91;5024031;28;20054;-76
2022/04/18 13:16:22;;;;;;;12.10;7.07;;;;;;;22.48;24.99;101857.00;5023439;28;20054;-72
2022/04/18 13:19:10;;;;;;;10.13;6.27;;;;;;;22.40;25.64;101843.78;5019184;28;20045;-72
2022/04/18 13:21:39;;;;;;;10.60;6.78;;;;;;;22.55;25.84;101847.06;5024219;28;20061;-75
2022/04/18 13:24:18;;;;;;;9.93;6.68;;;;;;;22.24;26.88;101839.63;5023511;28;20056;-72
2022/04/18 13:26:48;;;;;;;10.90;7.18;;;;;;;22.14;26.64;101843.41;5024072;28;20054;-75
2022/04/18 13:32:33;;;;;;;10.93;6.82;;;;;;;22.01;26.67;101831.13;5022820;28;20153;-75
2022/04/18 13:35:01;;;;;;;9.98;6.70;;;;;;;22.14;26.38;101830.03;5016893;28;20057;-76
2022/04/18 13:37:46;;;;;;;14.02;7.47;;;;;;;22.19;26.79;101830.81;5018205;28;20058;-73
2022/04/18 13:41:02;;;;;;;10.77;6.25;;;;;;;22.39;26.05;101812.63;5019010;28;20120;-72
2022/04/18 13:43:33;;;;;;;10.90;6.00;;;;;;;22.56;26.21;101817.63;5018852;28;20092;-76
2022/04/18 13:46:03;;;;;;;11.20;6.68;;;;;;;21.99;25.73;101808.91;5025617;28;20056;-76
2022/04/18 13:48:34;;;;;;;10.00;6.25;;;;;;;22.15;26.08;101811.31;5019392;28;20053;-76
2022/04/18 13:51:02;;;;;;;9.35;6.25;;;;;;;22.47;26.82;101801.75;5019381;28;20049;-76
2022/04/18 13:53:30;;;;;;;11.23;6.25;;;;;;;22.29;26.24;101804.81;5011589;28;20509;-76